createdAt,value
2022-09-30T00:01:41.480Z,2.83
2022-09-30T00:04:15.786Z,3.00
2022-09-30T00:06:43.931Z,3.22
2022-09-30T00:09:13.136Z,3.33
2022-09-30T00:11:42.618Z,3.42
2022-09-30T00:14:16.000Z,3.50
2022-09-30T00:16:44.845Z,3.12
2022-09-30T00:19:14.673Z,3.40
2022-09-30T00:21:42.755Z,3.30
2022-09-30T00:24:11.238Z,3.25
2022-09-30T00:26:39.383Z,3.33
2022-09-30T00:29:07.437Z,3.50
2022-09-30T00:31:36.563Z,3.15
2022-09-30T00:34:08.306Z,3.10
2022-09-30T00:36:44.510Z,3.42
2022-09-30T00:39:16.158Z,3.35
2022-09-30T00:41:48.075Z,3.28
2022-09-30T00:44:51.866Z,3.58
2022-09-30T00:47:32.587Z,3.33
2022-09-30T00:50:06.170Z,3.20
2022-09-30T00:52:44.094Z,3.70
2022-09-30T00:55:26.049Z,4.20
2022-09-30T00:57:55.809Z,3.37
2022-09-30T01:00:24.062Z,3.28
2022-09-30T01:02:52.172Z,3.30
2022-09-30T01:05:20.513Z,3.08
2022-09-30T01:07:50.520Z,3.75
2022-09-30T01:10:18.670Z,4.15
2022-09-30T01:12:47.226Z,3.60
2022-09-30T01:15:15.787Z,3.00
2022-09-30T01:17:53.742Z,3.80
2022-09-30T01:20:54.196Z,3.67
2022-09-30T01:24:04.520Z,3.20
2022-09-30T01:27:15.345Z,3.50
2022-09-30T01:30:10.383Z,3.05
2022-09-30T01:33:15.384Z,3.40
2022-09-30T01:35:58.825Z,3.87
2022-09-30T01:38:29.557Z,2.92
2022-09-30T01:41:06.732Z,3.25
2022-09-30T01:43:46.700Z,3.50
2022-09-30T01:46:24.275Z,3.75
2022-09-30T01:49:00.506Z,3.30
2022-09-30T01:51:36.427Z,3.42
2022-09-30T01:54:09.793Z,3.55
2022-09-30T01:56:44.470Z,3.67
2022-09-30T01:59:18.324Z,3.60
2022-09-30T02:01:53.185Z,4.03
2022-09-30T02:04:27.589Z,3.78
2022-09-30T02:07:01.926Z,3.78
2022-09-30T02:09:33.606Z,4.07
2022-09-30T02:12:05.967Z,3.05
2022-09-30T02:14:39.855Z,3.15
2022-09-30T02:17:24.244Z,3.62
2022-09-30T02:20:03.014Z,3.90
2022-09-30T02:22:36.151Z,4.55
2022-09-30T02:25:08.353Z,3.62
2022-09-30T02:27:42.571Z,3.67
2022-09-30T02:30:14.557Z,4.22
2022-09-30T02:32:47.460Z,4.03
2022-09-30T02:35:24.468Z,4.20
2022-09-30T02:37:56.666Z,3.72
2022-09-30T02:40:29.411Z,3.97
2022-09-30T02:42:58.165Z,4.72
2022-09-30T02:45:27.816Z,4.47
2022-09-30T02:48:10.705Z,4.05
2022-09-30T02:50:48.291Z,3.95
2022-09-30T02:53:24.673Z,3.67
2022-09-30T02:56:07.977Z,3.97
2022-09-30T02:58:39.461Z,3.55
2022-09-30T03:01:09.763Z,4.65
2022-09-30T03:03:40.750Z,3.90
2022-09-30T03:06:11.558Z,4.80
2022-09-30T03:08:39.721Z,4.10
2022-09-30T03:11:08.895Z,4.40
2022-09-30T03:14:05.020Z,4.10
2022-09-30T03:16:45.781Z,3.85
2022-09-30T03:19:29.103Z,4.15
2022-09-30T03:22:13.762Z,3.78
2022-09-30T03:24:52.408Z,4.65
2022-09-30T03:27:32.458Z,4.10
2022-09-30T03:30:05.487Z,3.90
2022-09-30T03:32:49.052Z,3.80
2022-09-30T03:35:22.655Z,3.83
2022-09-30T03:38:01.141Z,4.22
2022-09-30T03:40:37.971Z,3.87
2022-09-30T03:43:13.801Z,4.60
2022-09-30T03:45:48.055Z,4.30
2022-09-30T03:48:17.667Z,3.72
2022-09-30T03:50:49.946Z,4.25
2022-09-30T03:53:19.905Z,4.35
2022-09-30T03:55:49.994Z,4.00
2022-09-30T03:58:20.078Z,4.18
2022-09-30T04:00:50.696Z,4.62
2022-09-30T04:03:22.108Z,3.67
2022-09-30T04:05:50.664Z,3.70
2022-09-30T04:08:20.400Z,3.47
2022-09-30T04:10:50.938Z,3.70
2022-09-30T04:13:19.318Z,4.05
2022-09-30T04:15:55.075Z,3.42
2022-09-30T04:18:24.807Z,3.28
2022-09-30T04:20:53.180Z,4.03
2022-09-30T04:23:22.659Z,3.75
2022-09-30T04:25:54.333Z,3.72
2022-09-30T04:28:23.337Z,5.32
2022-09-30T04:30:51.706Z,5.28
2022-09-30T04:33:19.807Z,4.37
2022-09-30T04:35:47.993Z,4.57
2022-09-30T04:38:16.345Z,4.70
2022-09-30T04:40:45.683Z,4.70
2022-09-30T04:43:15.500Z,3.67
2022-09-30T04:45:49.750Z,3.70
2022-09-30T04:48:18.207Z,3.37
2022-09-30T04:50:47.070Z,4.68
2022-09-30T04:53:15.974Z,3.60
2022-09-30T04:55:46.599Z,3.85
2022-09-30T04:58:15.180Z,3.35
2022-09-30T05:00:43.411Z,4.20
2022-09-30T05:03:11.554Z,3.70
2022-09-30T05:05:39.789Z,3.92
2022-09-30T05:08:08.006Z,3.37
2022-09-30T05:10:39.121Z,3.35
2022-09-30T05:13:08.802Z,3.60
2022-09-30T05:15:36.871Z,2.95
2022-09-30T05:18:06.002Z,4.20
2022-09-30T05:20:34.641Z,3.97
2022-09-30T05:23:02.613Z,4.00
2022-09-30T05:25:30.687Z,3.50
2022-09-30T05:27:59.000Z,3.92
2022-09-30T05:30:28.946Z,3.45
2022-09-30T05:32:57.262Z,3.47
2022-09-30T05:35:25.543Z,3.20
2022-09-30T05:37:53.536Z,3.53
2022-09-30T05:40:21.564Z,3.90
2022-09-30T05:42:50.291Z,3.53
2022-09-30T05:45:18.501Z,3.83
2022-09-30T05:47:53.638Z,3.95
2022-09-30T05:50:23.564Z,3.37
2022-09-30T05:52:51.773Z,3.55
2022-09-30T05:55:22.551Z,3.75
2022-09-30T05:57:51.948Z,3.53
2022-09-30T06:00:21.058Z,3.70
2022-09-30T06:02:53.704Z,3.90
2022-09-30T06:05:22.255Z,3.50
2022-09-30T06:07:51.076Z,4.20
2022-09-30T06:10:19.288Z,4.03
2022-09-30T06:12:47.377Z,4.07
2022-09-30T06:15:15.831Z,3.35
2022-09-30T06:17:43.968Z,3.75
2022-09-30T06:20:14.057Z,3.92
2022-09-30T06:22:43.945Z,3.90
2022-09-30T06:25:12.493Z,3.85
2022-09-30T06:27:40.751Z,3.67
2022-09-30T06:30:10.584Z,3.33
2022-09-30T06:32:38.844Z,3.95
2022-09-30T06:35:07.296Z,3.78
2022-09-30T06:37:37.945Z,4.60
2022-09-30T06:40:07.726Z,4.03
2022-09-30T06:42:36.207Z,4.72
2022-09-30T06:45:09.070Z,4.57
2022-09-30T06:47:39.133Z,4.72
2022-09-30T06:50:12.932Z,3.92
2022-09-30T06:52:45.572Z,4.55
2022-09-30T06:55:13.765Z,4.12
2022-09-30T06:57:43.672Z,4.60
2022-09-30T07:00:14.063Z,4.97
2022-09-30T07:02:42.075Z,4.68
2022-09-30T07:05:10.676Z,4.43
2022-09-30T07:07:39.036Z,4.22
2022-09-30T07:10:09.623Z,4.25
2022-09-30T07:12:37.869Z,4.70
2022-09-30T07:15:10.276Z,4.62
2022-09-30T07:17:41.481Z,4.35
2022-09-30T07:20:09.937Z,5.07
2022-09-30T07:22:37.937Z,4.30
2022-09-30T07:25:09.712Z,4.65
2022-09-30T07:27:38.259Z,4.80
2022-09-30T07:30:11.969Z,4.82
2022-09-30T07:32:43.198Z,4.68
2022-09-30T07:35:11.314Z,5.10
2022-09-30T07:37:39.401Z,4.70
2022-09-30T07:40:10.441Z,4.78
2022-09-30T07:42:40.816Z,4.82
2022-09-30T07:45:10.938Z,5.25
2022-09-30T07:47:38.967Z,4.97
2022-09-30T07:50:10.345Z,4.45
2022-09-30T07:52:38.598Z,4.78
2022-09-30T07:55:07.111Z,5.00
2022-09-30T07:57:36.702Z,4.50
2022-09-30T08:00:23.482Z,5.03
2022-09-30T08:02:55.480Z,5.28
2022-09-30T08:05:23.548Z,5.80
2022-09-30T08:07:51.616Z,5.32
2022-09-30T08:12:57.446Z,5.03
2022-09-30T08:15:27.850Z,5.28
2022-09-30T08:17:55.901Z,5.68
2022-09-30T08:20:24.343Z,4.72
2022-09-30T08:22:54.156Z,5.45
2022-09-30T08:25:22.873Z,5.57
2022-09-30T08:27:51.274Z,5.07
2022-09-30T08:30:21.148Z,4.72
2022-09-30T08:32:49.181Z,4.32
2022-09-30T08:35:17.394Z,4.45
2022-09-30T08:37:45.751Z,4.75
2022-09-30T08:40:20.929Z,5.12
2022-09-30T08:43:10.145Z,4.65
2022-09-30T08:45:47.992Z,4.57
2022-09-30T08:48:36.096Z,4.72
2022-09-30T08:51:14.587Z,4.68
2022-09-30T08:53:47.392Z,4.90
2022-09-30T08:56:24.604Z,4.62
2022-09-30T08:58:57.402Z,4.50
2022-09-30T09:01:32.241Z,4.90
2022-09-30T09:04:03.717Z,4.62
2022-09-30T09:06:40.194Z,4.57
2022-09-30T09:09:32.990Z,4.75
2022-09-30T09:12:13.087Z,4.78
2022-09-30T09:14:55.759Z,4.87
2022-09-30T09:17:38.775Z,4.35
2022-09-30T09:20:14.846Z,4.85
2022-09-30T09:22:44.407Z,4.78
2022-09-30T09:25:16.154Z,4.70
2022-09-30T09:27:52.212Z,4.28
2022-09-30T09:30:21.859Z,5.35
2022-09-30T09:32:57.999Z,4.80
2022-09-30T09:35:44.886Z,4.07
2022-09-30T09:38:26.218Z,4.32
2022-09-30T09:41:09.095Z,4.05
2022-09-30T09:43:51.403Z,4.05
2022-09-30T09:46:26.695Z,4.20
2022-09-30T09:49:35.975Z,4.00
2022-09-30T09:52:36.568Z,3.55
2022-09-30T09:55:05.858Z,3.47
2022-09-30T09:57:34.223Z,3.35
2022-09-30T10:00:19.407Z,3.40
2022-09-30T10:03:02.838Z,2.87
2022-09-30T10:05:40.537Z,3.42
2022-09-30T10:08:16.185Z,3.95
2022-09-30T10:10:50.127Z,2.92
2022-09-30T10:13:22.580Z,3.37
2022-09-30T10:15:53.404Z,2.65
2022-09-30T10:18:26.520Z,2.50
2022-09-30T10:20:59.537Z,2.80
2022-09-30T10:23:30.967Z,2.75
2022-09-30T10:26:03.782Z,2.55
2022-09-30T10:28:47.689Z,2.58
2022-09-30T10:31:23.601Z,2.17
2022-09-30T10:34:03.449Z,2.22
2022-09-30T10:36:36.556Z,2.45
2022-09-30T10:39:20.607Z,2.20
2022-09-30T10:41:48.744Z,2.97
2022-09-30T10:44:21.156Z,2.58
2022-09-30T10:46:53.296Z,2.15
2022-09-30T10:49:28.476Z,2.50
2022-09-30T10:52:00.122Z,1.85
2022-09-30T10:54:48.983Z,1.73
2022-09-30T10:57:22.138Z,1.70
2022-09-30T10:59:53.331Z,1.70
2022-09-30T11:02:31.345Z,1.90
2022-09-30T11:05:08.351Z,1.62
2022-09-30T11:07:43.735Z,1.67
2022-09-30T11:10:29.336Z,1.83
2022-09-30T11:13:05.578Z,2.10
2022-09-30T11:15:39.796Z,2.17
2022-09-30T11:18:18.008Z,2.10
2022-09-30T11:20:56.250Z,1.65
2022-09-30T11:23:32.369Z,1.77
2022-09-30T11:26:05.764Z,1.50
2022-09-30T11:28:49.403Z,1.62
2022-09-30T11:31:35.755Z,1.90
2022-09-30T11:34:21.402Z,1.62
2022-09-30T11:37:01.857Z,1.35
2022-09-30T11:39:45.569Z,1.37
2022-09-30T11:42:30.233Z,2.10
2022-09-30T11:45:08.989Z,2.65
2022-09-30T11:47:53.564Z,2.72
2022-09-30T11:50:49.201Z,2.10
2022-09-30T11:53:29.475Z,2.03
2022-09-30T11:56:30.198Z,1.67
2022-09-30T11:59:02.452Z,1.85
2022-09-30T12:01:33.549Z,2.08
2022-09-30T12:04:07.177Z,1.85
2022-09-30T12:06:38.902Z,1.80
2022-09-30T12:09:15.373Z,1.73
2022-09-30T12:11:51.282Z,2.00
2022-09-30T12:14:26.519Z,1.60
2022-09-30T12:16:57.744Z,1.50
2022-09-30T12:19:32.092Z,1.25
2022-09-30T12:22:06.561Z,1.45
2022-09-30T12:24:38.693Z,1.30
2022-09-30T12:27:15.878Z,1.70
2022-09-30T12:30:09.642Z,1.15
2022-09-30T12:33:00.120Z,1.10
2022-09-30T12:35:53.682Z,1.65
2022-09-30T12:38:40.104Z,1.35
2022-09-30T12:41:25.650Z,1.15
2022-09-30T12:44:24.977Z,1.70
2022-09-30T12:47:12.265Z,1.37
2022-09-30T12:49:42.682Z,1.70
2022-09-30T12:52:15.983Z,1.67
2022-09-30T12:54:49.489Z,1.75
2022-09-30T12:57:24.326Z,1.45
2022-09-30T12:59:55.678Z,1.45
2022-09-30T13:02:31.834Z,1.55
2022-09-30T13:05:38.073Z,1.50
2022-09-30T13:08:11.283Z,1.40
2022-09-30T13:10:47.384Z,1.08
2022-09-30T13:13:24.744Z,1.30
2022-09-30T13:15:56.181Z,1.17
2022-09-30T13:19:02.295Z,1.10
2022-09-30T13:21:32.200Z,0.60
2022-09-30T13:24:01.762Z,0.98
2022-09-30T13:26:48.588Z,0.60
2022-09-30T13:29:39.353Z,1.10
2022-09-30T13:32:10.363Z,0.82
2022-09-30T13:34:58.862Z,0.80
2022-09-30T13:37:37.862Z,0.90
2022-09-30T13:40:19.030Z,0.60
2022-09-30T13:42:55.138Z,0.90
2022-09-30T13:45:33.959Z,0.80
2022-09-30T13:48:14.366Z,0.80
2022-09-30T13:50:47.791Z,1.67
2022-09-30T13:53:27.652Z,1.15
2022-09-30T13:55:58.178Z,1.15
2022-09-30T13:58:44.307Z,1.02
2022-09-30T14:01:26.165Z,0.85
2022-09-30T14:04:16.049Z,1.17
2022-09-30T14:06:57.751Z,1.10
2022-09-30T14:09:39.642Z,1.15
2022-09-30T14:12:18.815Z,0.98
2022-09-30T14:15:10.850Z,0.85
2022-09-30T14:17:54.198Z,0.98
2022-09-30T14:20:41.011Z,0.93
2022-09-30T14:23:15.050Z,1.00
2022-09-30T14:25:50.293Z,0.70
2022-09-30T14:28:27.782Z,0.43
2022-09-30T14:31:13.050Z,0.47
2022-09-30T14:33:42.800Z,0.73
2022-09-30T14:36:15.797Z,0.70
2022-09-30T14:38:47.240Z,0.45
2022-09-30T14:41:20.840Z,0.57
2022-09-30T14:43:56.602Z,0.60
2022-09-30T14:46:33.697Z,0.70
2022-09-30T14:49:06.193Z,0.57
2022-09-30T14:51:43.697Z,0.70
2022-09-30T14:54:21.052Z,0.62
2022-09-30T14:56:50.883Z,0.50
2022-09-30T14:59:22.099Z,0.50
2022-09-30T15:01:55.336Z,0.30
2022-09-30T15:04:27.347Z,0.70
2022-09-30T15:06:57.528Z,0.37
2022-09-30T15:09:29.575Z,0.32
2022-09-30T15:11:59.299Z,0.22
2022-09-30T15:14:32.866Z,0.62
2022-09-30T15:17:05.997Z,0.30
2022-09-30T15:19:43.041Z,0.20
2022-09-30T15:22:14.630Z,0.50
2022-09-30T15:24:44.307Z,0.30
2022-09-30T15:27:19.691Z,0.30
2022-09-30T15:29:57.872Z,0.25
2022-09-30T15:32:29.162Z,0.50
2022-09-30T15:34:58.611Z,0.40
2022-09-30T15:37:33.504Z,0.40
2022-09-30T15:40:20.599Z,0.40
2022-09-30T15:42:59.556Z,0.35
2022-09-30T15:45:35.572Z,0.40
2022-09-30T15:48:07.560Z,0.55
2022-09-30T15:50:41.114Z,0.40
2022-09-30T15:53:22.685Z,0.35
2022-09-30T15:55:55.545Z,0.35
2022-09-30T15:58:37.906Z,0.35
2022-09-30T16:01:20.042Z,0.50
2022-09-30T16:03:55.399Z,0.60
2022-09-30T16:06:32.398Z,0.60
2022-09-30T16:09:06.563Z,0.70
2022-09-30T16:11:40.846Z,0.50
2022-09-30T16:14:12.879Z,0.77
2022-09-30T16:16:41.689Z,0.80
2022-09-30T16:19:18.343Z,0.93
2022-09-30T16:21:52.596Z,0.88
2022-09-30T16:24:47.028Z,0.70
2022-09-30T16:27:33.974Z,1.40
2022-09-30T16:30:03.118Z,0.88
2022-09-30T16:32:36.388Z,1.30
2022-09-30T16:35:05.774Z,1.27
2022-09-30T16:37:35.135Z,1.12
2022-09-30T16:40:16.366Z,1.02
2022-09-30T16:42:44.661Z,1.00
2022-09-30T16:45:14.958Z,1.10
2022-09-30T16:47:43.675Z,0.90
2022-09-30T16:50:22.905Z,1.10
2022-09-30T16:52:50.943Z,1.25
2022-09-30T16:55:20.888Z,1.12
2022-09-30T16:57:49.952Z,1.20
2022-09-30T17:00:18.480Z,1.20
2022-09-30T17:02:48.300Z,1.55
2022-09-30T17:05:19.684Z,1.50
2022-09-30T17:07:50.835Z,1.52
2022-09-30T17:10:24.492Z,1.20
2022-09-30T17:12:53.519Z,1.30
2022-09-30T17:15:22.197Z,1.50
2022-09-30T17:17:50.374Z,1.23
2022-09-30T17:20:18.868Z,1.12
2022-09-30T17:22:47.564Z,2.95
2022-09-30T17:25:17.285Z,3.60
2022-09-30T17:27:50.118Z,4.15
2022-09-30T17:30:19.362Z,3.95
2022-09-30T17:32:48.548Z,3.62
2022-09-30T17:35:16.781Z,3.37
2022-09-30T17:37:46.464Z,2.50
2022-09-30T17:40:33.515Z,2.12
2022-09-30T17:43:10.903Z,1.60
2022-09-30T17:45:41.875Z,1.70
2022-09-30T17:48:10.583Z,1.90
2022-09-30T17:50:39.693Z,1.67
2022-09-30T17:53:08.064Z,1.95
2022-09-30T17:55:36.344Z,1.80
2022-09-30T17:58:07.428Z,2.05
2022-09-30T18:00:36.624Z,2.45
2022-09-30T18:03:05.862Z,2.03
2022-09-30T18:05:34.252Z,2.33
2022-09-30T18:08:03.273Z,2.78
2022-09-30T18:10:31.569Z,2.80
2022-09-30T18:12:59.699Z,2.83
2022-09-30T18:15:29.658Z,2.50
2022-09-30T18:17:58.215Z,2.75
2022-09-30T18:20:26.238Z,3.20
2022-09-30T18:22:54.406Z,2.90
2022-09-30T18:25:23.136Z,2.60
2022-09-30T18:27:53.432Z,2.28
2022-09-30T18:30:21.786Z,2.67
2022-09-30T18:32:53.053Z,2.75
2022-09-30T18:35:24.340Z,2.45
2022-09-30T18:37:54.117Z,2.92
2022-09-30T18:40:24.316Z,2.70
2022-09-30T18:42:58.497Z,2.37
2022-09-30T18:45:27.500Z,2.30
2022-09-30T18:47:59.055Z,2.95
2022-09-30T18:50:29.057Z,2.67
2022-09-30T18:52:58.109Z,2.55
2022-09-30T18:55:26.340Z,2.45
2022-09-30T18:57:55.228Z,2.45
2022-09-30T19:00:23.843Z,2.12
2022-09-30T19:02:53.307Z,7.53
2022-09-30T19:05:23.089Z,9.43
2022-09-30T19:07:53.365Z,8.40
2022-09-30T19:10:21.754Z,11.40
2022-09-30T19:12:49.805Z,13.07
2022-09-30T19:15:18.295Z,10.20
2022-09-30T19:17:46.765Z,11.25
2022-09-30T19:20:16.572Z,11.18
2022-09-30T19:22:46.796Z,8.70
2022-09-30T19:25:15.855Z,4.53
2022-09-30T19:27:44.549Z,6.05
2022-09-30T19:30:14.858Z,6.28
2022-09-30T19:32:42.948Z,6.03
2022-09-30T19:35:14.062Z,4.60
2022-09-30T19:37:56.363Z,2.67
2022-09-30T19:43:06.926Z,2.85
2022-09-30T19:45:35.253Z,2.40
2022-09-30T19:48:03.346Z,2.40
2022-09-30T19:50:31.894Z,2.25
2022-09-30T19:52:59.868Z,1.95
2022-09-30T19:55:44.843Z,2.35
2022-09-30T19:58:16.415Z,2.33
2022-09-30T20:00:46.974Z,2.00
2022-09-30T20:03:15.302Z,2.45
2022-09-30T20:05:43.876Z,2.05
2022-09-30T20:08:11.866Z,2.25
2022-09-30T20:10:41.448Z,1.87
2022-09-30T20:13:09.495Z,2.15
2022-09-30T20:15:53.223Z,2.40
2022-09-30T20:18:21.946Z,2.65
2022-09-30T20:20:50.058Z,2.62
2022-09-30T20:23:19.309Z,2.25
2022-09-30T20:25:49.705Z,3.28
2022-09-30T20:28:18.134Z,3.47
2022-09-30T20:30:46.379Z,2.80
2022-09-30T20:33:16.949Z,3.10
2022-09-30T20:35:45.386Z,2.58
2022-09-30T20:38:15.448Z,2.20
2022-09-30T20:40:44.265Z,3.00
2022-09-30T20:43:13.771Z,3.00
2022-09-30T20:45:41.970Z,3.35
2022-09-30T20:48:10.341Z,3.03
2022-09-30T20:50:43.354Z,3.22
2022-09-30T20:53:13.694Z,3.28
2022-09-30T20:55:44.349Z,4.00
2022-09-30T20:58:14.302Z,3.33
2022-09-30T21:00:43.290Z,3.15
2022-09-30T21:03:14.006Z,3.30
2022-09-30T21:05:42.560Z,3.20
2022-09-30T21:08:10.635Z,3.05
2022-09-30T21:10:39.384Z,3.33
2022-09-30T21:13:11.358Z,3.65
2022-09-30T21:15:41.417Z,3.53
2022-09-30T21:18:10.256Z,3.05
2022-09-30T21:20:38.594Z,3.22
2022-09-30T21:23:06.568Z,3.50
2022-09-30T21:25:35.006Z,3.40
2022-09-30T21:28:03.377Z,3.92
2022-09-30T21:30:31.523Z,3.70
2022-09-30T21:33:01.228Z,4.07
2022-09-30T21:35:29.256Z,3.75
2022-09-30T21:37:57.607Z,4.05
2022-09-30T21:40:27.987Z,4.12
2022-09-30T21:42:56.015Z,4.22
2022-09-30T21:45:25.416Z,3.83
2022-09-30T21:48:03.824Z,3.55
2022-09-30T21:50:35.376Z,3.60
2022-09-30T21:53:04.596Z,4.12
2022-09-30T21:55:33.447Z,3.95
2022-09-30T21:58:01.446Z,4.10
2022-09-30T22:00:29.700Z,3.95
2022-09-30T22:02:58.747Z,4.05
2022-09-30T22:05:28.128Z,4.12
2022-09-30T22:07:59.457Z,4.72
2022-09-30T22:10:27.733Z,4.25
2022-09-30T22:12:55.754Z,4.07
2022-09-30T22:15:24.019Z,3.90
2022-09-30T22:17:52.308Z,3.75
2022-09-30T22:20:20.886Z,3.75
2022-09-30T22:22:50.225Z,4.07
2022-09-30T22:25:20.434Z,4.00
2022-09-30T22:27:48.615Z,3.62
2022-09-30T22:30:16.884Z,4.32
2022-09-30T22:32:45.156Z,3.85
2022-09-30T22:35:31.166Z,4.18
2022-09-30T22:38:16.004Z,3.72
2022-09-30T22:40:44.128Z,4.32
2022-09-30T22:43:12.372Z,4.00
2022-09-30T22:45:40.465Z,4.12
2022-09-30T22:48:08.524Z,4.22
2022-09-30T22:50:36.803Z,4.93
2022-09-30T22:53:06.109Z,4.72
2022-09-30T22:55:35.132Z,5.40
2022-09-30T22:58:03.440Z,4.87
2022-09-30T23:00:31.563Z,5.40
2022-09-30T23:02:59.557Z,4.70
2022-09-30T23:05:27.922Z,5.00
2022-09-30T23:07:55.969Z,4.85
2022-09-30T23:10:25.326Z,5.60
2022-09-30T23:12:53.696Z,4.95
2022-09-30T23:15:21.766Z,4.60
2022-09-30T23:17:50.059Z,5.22
2022-09-30T23:20:18.808Z,4.90
2022-09-30T23:22:47.035Z,4.55
2022-09-30T23:25:15.170Z,4.53
2022-09-30T23:27:48.461Z,4.75
2022-09-30T23:30:16.774Z,5.05
2022-09-30T23:32:45.031Z,4.05
2022-09-30T23:35:14.080Z,4.68
2022-09-30T23:37:42.230Z,4.35
2022-09-30T23:40:11.037Z,4.65
2022-09-30T23:42:39.113Z,4.95
2022-09-30T23:45:09.827Z,4.00
2022-09-30T23:47:38.231Z,4.82
2022-09-30T23:50:07.085Z,4.47
2022-09-30T23:52:35.620Z,4.75
2022-09-30T23:55:04.000Z,4.35
2022-09-30T23:57:31.946Z,4.35
